Time;durP1;ratioP1;P1;durP2;ratioP2;P2;SDS_P1;SDS_P2;PMS_P1;PMS_P2;Temp;Humidity;BMP_temperature;BMP_pressure;BME280_temperature;BME280_humidity;BME280_pressure;Samples;Min_cycle;Max_cycle;Signal;HPM_P1;HPM_P2
2023/12/28 00:01:56;;;;;;;3.65;2.72;;;;;;;-1.16;67.95;95253.78;6101310;29;20083;-66
2023/12/28 00:05:00;;;;;;;2.50;1.85;;;;;;;-1.10;67.50;95248.38;6101440;29;20048;-67
2023/12/28 00:08:02;;;;;;;2.90;2.10;;;;;;;-1.06;68.60;95254.22;6101602;29;20052;-67
2023/12/28 00:11:03;;;;;;;2.35;1.95;;;;;;;-1.06;67.93;95254.22;6099795;29;20118;-67
2023/12/28 00:14:05;;;;;;;4.15;3.15;;;;;;;-1.14;67.75;95251.97;6101066;29;20044;-68
2023/12/28 00:17:06;;;;;;;2.38;1.98;;;;;;;-1.10;68.38;95250.94;6100898;29;20048;-66
2023/12/28 00:20:08;;;;;;;2.85;2.45;;;;;;;-1.12;68.55;95245.00;6101487;29;20063;-67
2023/12/28 00:23:11;;;;;;;1.77;1.60;;;;;;;-0.98;67.44;95242.63;6101241;29;20070;-68
2023/12/28 00:26:12;;;;;;;3.25;2.50;;;;;;;-1.04;67.33;95253.25;6100555;29;20048;-68
2023/12/28 00:29:16;;;;;;;3.10;2.50;;;;;;;-1.00;67.61;95249.59;6101188;29;20040;-67
2023/12/28 00:32:20;;;;;;;3.25;2.60;;;;;;;-1.14;67.58;95236.50;6084852;29;20459;-67
2023/12/28 00:35:21;;;;;;;3.50;2.60;;;;;;;-1.08;67.34;95251.69;6084011;29;20080;-65
2023/12/28 00:38:25;;;;;;;2.53;1.75;;;;;;;-1.14;67.55;95257.97;6101146;29;20052;-67
2023/12/28 00:41:33;;;;;;;3.00;2.50;;;;;;;-1.24;68.29;95255.88;6101038;29;20083;-67
2023/12/28 00:44:37;;;;;;;2.10;1.80;;;;;;;-1.25;68.43;95260.19;6100833;29;20131;-67
2023/12/28 00:47:43;;;;;;;3.00;2.70;;;;;;;-1.34;68.78;95264.94;6101065;29;20040;-67
2023/12/28 00:50:44;;;;;;;2.47;2.25;;;;;;;-1.24;68.31;95261.06;6067816;29;20048;-67
2023/12/28 00:53:45;;;;;;;2.65;1.50;;;;;;;-1.04;67.93;95253.25;6100775;29;20502;-66
2023/12/28 00:56:50;;;;;;;3.42;2.47;;;;;;;-1.03;67.62;95265.22;6100984;29;20067;-67
2023/12/28 00:59:58;;;;;;;2.22;1.63;;;;;;;-1.07;67.86;95263.72;6100906;29;20048;-67
2023/12/28 01:03:03;;;;;;;3.28;2.60;;;;;;;-1.16;68.72;95256.34;6099838;29;20059;-67
2023/12/28 01:06:09;;;;;;;1.45;0.93;;;;;;;-1.06;68.18;95265.38;6100082;29;20048;-67
2023/12/28 01:09:16;;;;;;;4.88;2.70;;;;;;;-1.07;68.35;95253.38;6100773;29;20051;-67
2023/12/28 01:12:18;;;;;;;2.60;2.13;;;;;;;-1.02;68.05;95248.88;6100777;29;20036;-67
2023/12/28 01:15:22;;;;;;;2.30;1.73;;;;;;;-1.13;68.28;95240.75;6100342;29;20044;-68
2023/12/28 01:18:29;;;;;;;3.45;2.00;;;;;;;-1.11;68.61;95246.66;6100315;29;20051;-68
2023/12/28 01:21:31;;;;;;;3.17;2.42;;;;;;;-1.44;68.96;95213.75;6082656;29;20067;-67
2023/12/28 01:24:36;;;;;;;2.85;2.20;;;;;;;-1.31;68.96;95239.00;6099510;29;20150;-67
2023/12/28 01:27:38;;;;;;;4.13;1.83;;;;;;;-1.30;69.42;95236.34;6099731;29;20818;-68
2023/12/28 01:30:40;;;;;;;2.85;2.40;;;;;;;-1.41;69.84;95234.25;6100400;29;20048;-67
2023/12/28 01:33:47;;;;;;;1.90;1.80;;;;;;;-1.53;70.03;95224.44;6100371;29;20047;-68
2023/12/28 01:36:51;;;;;;;1.88;1.63;;;;;;;-1.47;70.29;95218.19;6100061;29;20510;-67
2023/12/28 01:39:58;;;;;;;3.58;2.83;;;;;;;-1.48;70.13;95227.66;6099173;29;20052;-68
2023/12/28 01:43:05;;;;;;;2.42;2.20;;;;;;;-1.61;70.80;95231.72;6099620;29;20049;-66
2023/12/28 01:46:28;;;;;;;4.63;2.35;;;;;;;-1.52;70.60;95225.31;6099089;29;20052;-67
2023/12/28 01:49:33;;;;;;;3.10;2.60;;;;;;;-1.74;71.41;95241.69;6099808;29;20048;-67
2023/12/28 01:52:37;;;;;;;3.90;2.47;;;;;;;-1.63;71.51;95248.97;6099543;29;20047;-66
2023/12/28 01:55:38;;;;;;;3.97;2.50;;;;;;;-1.54;71.38;95238.25;6099945;29;20051;-67
2023/12/28 01:58:43;;;;;;;5.35;3.50;;;;;;;-1.66;71.96;95241.38;6099453;29;20044;-67
2023/12/28 02:01:49;;;;;;;7.35;3.75;;;;;;;-1.67;72.03;95235.38;6098685;29;20044;-67
2023/12/28 02:04:54;;;;;;;4.28;2.58;;;;;;;-1.65;72.38;95236.13;6099664;29;20772;-66
2023/12/28 02:07:58;;;;;;;4.13;3.28;;;;;;;-1.84;72.63;95230.94;6099473;29;20056;-68
2023/12/28 02:11:05;;;;;;;6.53;3.15;;;;;;;-1.93;72.82;95246.78;6082391;29;20063;-67
2023/12/28 02:14:06;;;;;;;4.90;3.00;;;;;;;-1.76;73.22;95247.81;6099355;29;20048;-67
2023/12/28 02:17:16;;;;;;;4.93;2.65;;;;;;;-1.79;73.65;95248.78;6099338;29;20047;-66
2023/12/28 02:20:19;;;;;;;1.95;1.58;;;;;;;-1.67;72.79;95242.25;6098373;29;20048;-66
2023/12/28 02:23:22;;;;;;;3.70;3.40;;;;;;;-1.77;72.59;95241.84;6099623;29;20040;-66
2023/12/28 02:26:26;;;;;;;3.00;2.22;;;;;;;-1.69;72.83;95244.09;6081806;29;20058;-67
2023/12/28 02:29:32;;;;;;;3.20;2.33;;;;;;;-1.71;73.21;95245.88;6098272;29;20154;-68
2023/12/28 02:32:47;;;;;;;6.43;2.83;;;;;;;-1.79;73.63;95258.25;6098680;29;20048;-67
2023/12/28 02:35:57;;;;;;;5.07;3.33;;;;;;;-1.85;74.00;95241.31;6102608;29;20055;-66
2023/12/28 02:39:03;;;;;;;11.50;4.70;;;;;;;-1.98;74.00;95235.84;6103793;29;20048;-67
2023/12/28 02:42:08;;;;;;;9.52;4.28;;;;;;;-1.97;74.45;95226.38;6103083;29;20423;-67
2023/12/28 02:45:12;;;;;;;7.93;3.47;;;;;;;-1.94;74.51;95219.34;6102937;29;20059;-66
2023/12/28 02:48:15;;;;;;;8.32;5.13;;;;;;;-2.01;74.93;95205.03;6103392;29;20138;-67
2023/12/28 02:51:19;;;;;;;6.65;4.15;;;;;;;-2.07;75.06;95202.72;6085906;29;20514;-66
2023/12/28 02:54:27;;;;;;;6.78;3.58;;;;;;;-2.16;75.15;95195.38;6103211;29;20047;-67
2023/12/28 02:57:37;;;;;;;3.83;2.72;;;;;;;-1.92;74.62;95202.09;6102724;29;20196;-67
2023/12/28 03:00:38;;;;;;;2.95;2.22;;;;;;;-1.87;74.95;95205.31;6102685;29;20052;-67
2023/12/28 03:03:45;;;;;;;4.53;2.85;;;;;;;-1.94;74.81;95201.31;6102845;29;20052;-67
2023/12/28 03:06:48;;;;;;;2.38;2.13;;;;;;;-1.95;74.94;95186.75;6102977;29;20048;-66
2023/12/28 03:09:52;;;;;;;2.65;2.35;;;;;;;-1.83;74.09;95191.38;6102749;29;20048;-67
2023/12/28 03:12:59;;;;;;;3.63;2.05;;;;;;;-1.82;74.58;95177.56;6102928;29;20123;-67
2023/12/28 03:16:03;;;;;;;3.83;2.45;;;;;;;-1.92;74.09;95181.47;6102116;29;20119;-68
2023/12/28 03:19:10;;;;;;;4.18;2.75;;;;;;;-1.90;74.66;95174.47;6086230;29;20044;-67
2023/12/28 03:22:11;;;;;;;5.00;3.00;;;;;;;-1.98;74.69;95163.69;6102019;29;20429;-67
2023/12/28 03:25:14;;;;;;;3.47;2.88;;;;;;;-1.90;75.53;95147.88;6102145;29;20131;-66
2023/12/28 03:28:21;;;;;;;3.45;2.63;;;;;;;-2.06;75.70;95145.97;6102697;29;20190;-67
2023/12/28 03:31:27;;;;;;;3.42;2.53;;;;;;;-2.05;75.80;95149.38;6102628;29;20081;-68
2023/12/28 03:34:35;;;;;;;4.18;2.67;;;;;;;-2.29;76.50;95126.34;6102526;29;20051;-66
2023/12/28 03:37:44;;;;;;;2.92;1.95;;;;;;;-2.25;76.73;95103.84;6102689;29;20044;-67
2023/12/28 03:40:50;;;;;;;4.55;2.88;;;;;;;-2.04;75.97;95099.50;6102156;29;20422;-67
2023/12/28 03:43:57;;;;;;;3.25;2.35;;;;;;;-2.07;76.64;95099.63;6102309;29;20044;-67
2023/12/28 03:47:02;;;;;;;3.53;2.35;;;;;;;-2.13;76.94;95089.59;6085156;29;20040;-67
2023/12/28 03:50:06;;;;;;;3.08;1.60;;;;;;;-2.05;77.20;95082.38;6101930;29;20498;-67
2023/12/28 03:53:09;;;;;;;4.50;2.60;;;;;;;-2.11;77.12;95087.78;6101412;29;20399;-67
2023/12/28 03:56:23;;;;;;;5.88;3.08;;;;;;;-2.11;77.40;95092.94;6101227;29;20062;-67
2023/12/28 03:59:27;;;;;;;3.80;2.92;;;;;;;-1.89;76.27;95098.00;6100844;29;20048;-68
2023/12/28 04:02:31;;;;;;;3.92;2.72;;;;;;;-2.00;76.00;95070.13;6084438;29;20063;-67
2023/12/28 04:05:32;;;;;;;5.45;3.42;;;;;;;-2.06;76.46;95067.81;6085112;29;20498;-66
2023/12/28 04:08:36;;;;;;;3.72;2.88;;;;;;;-2.19;76.85;95089.88;6101784;29;20040;-67
2023/12/28 04:11:40;;;;;;;3.63;2.78;;;;;;;-2.15;76.46;95091.41;6101046;29;20051;-68
2023/12/28 04:14:43;;;;;;;5.35;2.80;;;;;;;-2.06;76.72;95101.31;6084251;29;20049;-67
2023/12/28 04:17:45;;;;;;;3.88;2.72;;;;;;;-2.16;77.11;95113.75;6100709;29;20048;-67
2023/12/28 04:20:54;;;;;;;4.38;2.83;;;;;;;-2.15;77.25;95119.75;6101690;29;20040;-67
2023/12/28 04:24:01;;;;;;;2.70;1.95;;;;;;;-2.05;77.22;95113.28;6101351;29;20048;-66
2023/12/28 04:27:04;;;;;;;4.82;2.80;;;;;;;-1.93;77.04;95096.44;6101449;29;20048;-67
2023/12/28 04:30:07;;;;;;;6.75;3.25;;;;;;;-1.83;76.52;95088.25;6084285;29;20149;-67
2023/12/28 04:33:12;;;;;;;4.88;2.75;;;;;;;-1.97;77.33;95095.75;6100760;29;20052;-67
2023/12/28 04:36:18;;;;;;;4.78;3.00;;;;;;;-1.88;77.47;95087.59;6100460;29;20052;-68
2023/12/28 04:39:22;;;;;;;3.97;2.92;;;;;;;-1.81;77.55;95072.72;6100748;29;20044;-67
2023/12/28 04:42:24;;;;;;;7.30;4.35;;;;;;;-1.78;77.07;95054.53;6100068;29;20047;-67
2023/12/28 04:45:26;;;;;;;5.78;3.65;;;;;;;-1.70;77.26;95056.75;6100144;29;20105;-67
2023/12/28 04:48:34;;;;;;;4.03;2.90;;;;;;;-1.63;76.60;95052.97;6100571;29;20473;-69
2023/12/28 04:51:41;;;;;;;2.42;2.03;;;;;;;-1.71;76.78;95062.81;6099886;29;20074;-68
2023/12/28 04:54:46;;;;;;;3.42;2.55;;;;;;;-1.76;77.30;95047.53;6100045;29;20084;-68
2023/12/28 04:57:50;;;;;;;3.85;2.60;;;;;;;-1.67;76.89;95034.25;6099778;29;20562;-67
2023/12/28 05:00:54;;;;;;;4.15;2.72;;;;;;;-1.59;76.83;95039.03;6099284;29;20144;-67
2023/12/28 05:03:58;;;;;;;5.38;3.40;;;;;;;-1.60;77.22;95025.31;6099461;29;20056;-68
2023/12/28 05:07:04;;;;;;;4.03;3.05;;;;;;;-1.44;76.74;95022.84;6083508;29;20422;-67
2023/12/28 05:10:12;;;;;;;5.85;2.97;;;;;;;-1.50;76.41;95024.84;6099762;29;20052;-67
2023/12/28 05:13:16;;;;;;;3.95;2.65;;;;;;;-1.46;77.40;95013.50;6099957;29;20044;-67
2023/12/28 05:16:20;;;;;;;4.93;3.30;;;;;;;-1.50;77.23;95007.66;6099940;29;20572;-67
2023/12/28 05:19:24;;;;;;;7.10;4.38;;;;;;;-1.87;77.80;94962.97;6099462;29;20052;-67
2023/12/28 05:22:25;;;;;;;12.32;6.15;;;;;;;-1.55;78.43;95027.69;6099996;29;20039;-67
2023/12/28 05:25:30;;;;;;;9.57;5.53;;;;;;;-1.39;78.30;95036.38;6099269;29;20063;-67
2023/12/28 05:28:36;;;;;;;6.97;5.05;;;;;;;-1.32;78.50;95048.97;6099593;29;20059;-66
2023/12/28 05:31:45;;;;;;;5.63;3.17;;;;;;;-1.28;78.35;95037.59;6099548;29;20542;-67
2023/12/28 05:34:47;;;;;;;11.45;6.18;;;;;;;-1.18;77.49;95024.19;6098826;29;20048;-68
2023/12/28 05:37:48;;;;;;;6.35;3.63;;;;;;;-1.06;77.87;94996.09;6099347;29;20063;-68
2023/12/28 05:40:55;;;;;;;11.73;5.57;;;;;;;-1.16;77.87;94982.78;6099710;29;20044;-68
2023/12/28 05:44:04;;;;;;;9.55;4.75;;;;;;;-1.21;77.36;95023.50;6099583;29;20050;-68
2023/12/28 05:47:11;;;;;;;9.15;4.53;;;;;;;-1.12;77.26;95033.38;6099631;29;20048;-68
2023/12/28 05:50:18;;;;;;;7.95;4.38;;;;;;;-1.23;77.56;95004.66;6099652;29;20044;-69
2023/12/28 05:53:19;;;;;;;14.82;7.35;;;;;;;-1.13;77.33;95026.53;6098646;29;20075;-67
2023/12/28 05:56:25;;;;;;;9.77;5.60;;;;;;;-1.19;77.88;95021.66;6083138;29;20043;-68
2023/12/28 05:59:27;;;;;;;14.82;7.88;;;;;;;-1.07;77.71;95015.09;6098919;29;20044;-69
2023/12/28 06:02:31;;;;;;;10.57;6.28;;;;;;;-1.14;77.89;94993.88;6099571;29;20476;-67
2023/12/28 06:05:35;;;;;;;14.45;7.43;;;;;;;-1.13;78.21;94985.25;6081964;29;20052;-68
2023/12/28 06:08:36;;;;;;;;;;;;;;;-0.94;77.08;94974.81;6084454;29;20052;-67
2023/12/28 06:11:37;;;;;;;18.27;8.93;;;;;;;-0.96;76.72;94950.84;6104027;29;19923;-67
2023/12/28 06:14:39;;;;;;;17.20;7.30;;;;;;;-1.01;77.78;94938.16;6103635;29;20078;-67
2023/12/28 06:17:43;;;;;;;19.05;10.63;;;;;;;-0.91;77.16;94944.53;6104007;29;20040;-67
2023/12/28 06:20:44;;;;;;;20.13;8.48;;;;;;;-0.95;77.19;94932.69;6103967;29;20051;-68
2023/12/28 06:23:48;;;;;;;17.85;8.55;;;;;;;-1.01;77.79;94938.16;6103825;29;20040;-67
2023/12/28 06:26:51;;;;;;;13.57;7.25;;;;;;;-0.98;77.97;94922.53;6103161;29;20575;-68
2023/12/28 06:30:00;;;;;;;12.57;6.95;;;;;;;-0.89;77.96;94925.56;6103089;29;20147;-69
2023/12/28 06:33:04;;;;;;;10.80;6.45;;;;;;;-0.79;77.67;94900.91;6103542;29;20040;-67
2023/12/28 06:36:06;;;;;;;14.27;7.20;;;;;;;-0.79;77.92;94898.31;6103250;29;20055;-66
2023/12/28 06:39:11;;;;;;;17.58;8.95;;;;;;;-0.74;78.48;94883.44;6103025;29;20168;-67
2023/12/28 06:42:14;;;;;;;14.40;7.47;;;;;;;-0.61;78.43;94874.13;6102907;29;20044;-67
2023/12/28 06:45:26;;;;;;;18.00;9.65;;;;;;;-0.51;78.64;94870.16;6103403;29;20044;-68
2023/12/28 06:48:35;;;;;;;12.07;6.68;;;;;;;-0.41;78.35;94859.31;6103835;29;20461;-67
2023/12/28 06:51:37;;;;;;;12.88;7.50;;;;;;;-0.29;78.27;94869.81;6103350;29;20063;-68
2023/12/28 06:54:40;;;;;;;12.75;6.95;;;;;;;-0.29;78.25;94862.06;6103323;29;20499;-68
2023/12/28 06:57:44;;;;;;;13.88;7.45;;;;;;;-0.18;78.34;94866.66;6102595;29;20083;-68
2023/12/28 07:00:51;;;;;;;12.80;6.85;;;;;;;-0.15;78.20;94858.72;6103247;29;20047;-68
2023/12/28 07:03:56;;;;;;;9.25;5.70;;;;;;;-0.09;78.25;94842.88;6078441;29;20425;-67
2023/12/28 07:06:59;;;;;;;12.52;7.47;;;;;;;-0.05;78.11;94831.44;6080369;29;20052;-67
2023/12/28 07:10:04;;;;;;;12.65;6.35;;;;;;;-0.03;77.85;94824.44;6079893;29;20045;-68
2023/12/28 07:13:06;;;;;;;9.48;6.43;;;;;;;0.03;78.44;94835.34;6079637;29;20396;-68
2023/12/28 07:16:10;;;;;;;12.55;6.90;;;;;;;0.04;77.57;94827.50;6078575;29;20048;-68
2023/12/28 07:19:14;;;;;;;11.45;6.72;;;;;;;0.04;78.25;94812.00;6078843;29;20052;-68
2023/12/28 07:22:21;;;;;;;15.68;8.20;;;;;;;0.02;77.91;94784.56;6079373;29;20418;-67
2023/12/28 07:25:30;;;;;;;15.40;8.65;;;;;;;-0.04;78.13;94776.22;6078166;29;20396;-70
2023/12/28 07:28:32;;;;;;;14.15;7.15;;;;;;;-0.06;78.00;94753.97;6079259;29;20203;-68
2023/12/28 07:31:38;;;;;;;14.18;7.50;;;;;;;0.00;78.22;94740.72;6079139;29;20052;-67
2023/12/28 07:34:46;;;;;;;21.27;10.50;;;;;;;-0.03;77.70;94736.56;6077924;29;20048;-69
2023/12/28 07:37:52;;;;;;;21.60;10.07;;;;;;;-0.05;77.49;94702.19;6078857;29;20040;-71
2023/12/28 07:40:59;;;;;;;15.45;8.77;;;;;;;-0.02;77.95;94690.84;6079153;29;20040;-68
2023/12/28 07:44:06;;;;;;;17.50;8.98;;;;;;;-0.04;77.31;94701.25;6079110;29;20041;-67
2023/12/28 07:47:09;;;;;;;19.08;9.25;;;;;;;-0.07;78.23;94698.84;6077495;29;20048;-68
2023/12/28 07:50:16;;;;;;;16.65;8.10;;;;;;;-0.11;77.96;94665.53;6078616;29;20058;-68
2023/12/28 07:53:28;;;;;;;15.43;8.55;;;;;;;-0.08;77.83;94650.66;6078819;29;20084;-68
2023/12/28 07:56:36;;;;;;;14.07;7.28;;;;;;;-0.05;77.81;94660.81;6078559;29;20048;-67
2023/12/28 07:59:40;;;;;;;15.40;7.20;;;;;;;-0.02;77.77;94676.16;6077437;29;20045;-70
2023/12/28 08:02:41;;;;;;;19.65;9.35;;;;;;;-0.03;77.68;94671.06;6087147;29;20063;-69
2023/12/28 08:05:45;;;;;;;18.40;8.40;;;;;;;-0.01;77.35;94657.13;6102156;29;20040;-67
2023/12/28 08:08:46;;;;;;;14.40;7.28;;;;;;;-0.05;77.72;94645.31;6084230;29;20052;-68
2023/12/28 08:11:48;;;;;;;21.23;9.40;;;;;;;-0.10;77.28;94662.84;6101121;29;20059;-67
2023/12/28 08:15:02;;;;;;;15.63;8.57;;;;;;;-0.11;77.70;94656.03;6101504;29;20044;-68
2023/12/28 08:18:08;;;;;;;15.43;7.90;;;;;;;-0.09;77.67;94637.81;6100745;29;20191;-68
2023/12/28 08:21:13;;;;;;;17.33;8.68;;;;;;;-0.15;77.69;94626.09;6101483;29;20246;-68
2023/12/28 08:24:16;;;;;;;15.13;6.60;;;;;;;-0.05;77.91;94624.63;6100804;29;20582;-69
2023/12/28 08:27:21;;;;;;;16.45;8.10;;;;;;;0.01;77.98;94632.94;6100584;29;20059;-69
2023/12/28 08:30:24;;;;;;;18.83;9.10;;;;;;;-0.02;77.36;94634.78;6100454;29;20083;-68
2023/12/28 08:33:28;;;;;;;18.60;9.93;;;;;;;-0.02;77.63;94624.44;6099456;29;20059;-68
2023/12/28 08:36:38;;;;;;;15.00;7.75;;;;;;;0.03;77.93;94610.41;6101215;29;20447;-69
2023/12/28 08:39:42;;;;;;;17.45;8.02;;;;;;;0.01;77.66;94592.41;6101001;29;20036;-69
2023/12/28 08:42:45;;;;;;;15.05;8.02;;;;;;;0.02;78.22;94567.38;6099952;29;20139;-68
2023/12/28 08:45:49;;;;;;;12.02;6.40;;;;;;;0.01;77.89;94576.91;6100356;29;20115;-68
2023/12/28 08:48:51;;;;;;;11.38;6.72;;;;;;;-0.02;77.96;94574.50;6100162;29;20059;-68
2023/12/28 08:51:58;;;;;;;15.88;8.15;;;;;;;0.01;77.63;94560.56;6100832;29;20051;-68
2023/12/28 08:55:12;;;;;;;10.43;5.53;;;;;;;0.02;78.00;94567.38;6366421;27;20735;-68
2023/12/28 08:58:18;;;;;;;10.05;6.03;;;;;;;-0.02;78.14;94551.22;6340397;28;20036;-69
2023/12/28 09:01:21;;;;;;;11.18;5.82;;;;;;;-0.09;77.34;94545.59;6339249;28;20140;-68
2023/12/28 09:04:27;;;;;;;12.38;6.47;;;;;;;-0.07;78.06;94533.41;6339886;28;20043;-68
2023/12/28 09:07:31;;;;;;;12.20;7.20;;;;;;;-0.04;77.57;94517.72;6340073;28;20529;-69
2023/12/28 09:10:32;;;;;;;13.88;7.20;;;;;;;-0.12;77.71;94498.41;6340100;28;20032;-70
2023/12/28 09:13:40;;;;;;;10.70;5.63;;;;;;;-0.13;78.05;94495.00;6321779;28;20044;-68
2023/12/28 09:16:46;;;;;;;10.48;6.55;;;;;;;-0.11;77.43;94476.84;6339859;28;20043;-69
2023/12/28 09:19:48;;;;;;;10.73;5.68;;;;;;;-0.19;77.98;94460.97;6339842;28;20043;-69
2023/12/28 09:22:53;;;;;;;10.65;5.72;;;;;;;-0.21;77.42;94462.81;6339918;28;20039;-69
2023/12/28 09:26:03;;;;;;;10.82;5.35;;;;;;;-0.18;77.71;94460.84;6322133;28;20035;-68
2023/12/28 09:29:04;;;;;;;9.57;5.05;;;;;;;-0.16;77.69;94451.25;6339793;28;20152;-68
2023/12/28 09:32:06;;;;;;;8.38;5.55;;;;;;;-0.16;77.71;94425.41;6339628;28;20036;-69
2023/12/28 09:35:10;;;;;;;9.32;5.55;;;;;;;-0.16;77.54;94415.06;6339660;28;20050;-69
2023/12/28 09:38:17;;;;;;;12.05;5.60;;;;;;;-0.28;77.75;94400.34;6339400;28;20445;-68
2023/12/28 09:41:24;;;;;;;10.75;6.38;;;;;;;-0.19;77.94;94388.59;6338598;28;20044;-69
2023/12/28 09:44:36;;;;;;;11.65;6.32;;;;;;;-0.20;77.66;94376.59;6339581;28;20044;-69
2023/12/28 09:47:43;;;;;;;10.00;5.93;;;;;;;-0.22;77.68;94358.59;6339498;28;20441;-69
2023/12/28 09:50:54;;;;;;;12.32;7.00;;;;;;;-0.18;77.27;94360.06;6339280;28;20040;-69
2023/12/28 09:53:58;;;;;;;20.30;11.73;;;;;;;-0.18;77.53;94344.56;6305953;28;20056;-70
2023/12/28 09:57:02;;;;;;;11.73;6.68;;;;;;;-0.19;77.83;94340.31;6288460;28;20044;-69
2023/12/28 10:00:06;;;;;;;9.30;5.53;;;;;;;-0.21;78.23;94318.09;6288293;28;20045;-69
2023/12/28 10:03:07;;;;;;;9.05;5.70;;;;;;;-0.19;77.60;94296.38;6288467;28;20049;-68
2023/12/28 10:06:11;;;;;;;11.23;5.57;;;;;;;-0.19;77.43;94275.72;6273759;28;20040;-69
2023/12/28 10:09:13;;;;;;;10.95;5.88;;;;;;;-0.28;77.70;94250.47;6271197;28;20044;-69
2023/12/28 10:12:19;;;;;;;10.68;5.30;;;;;;;-0.27;77.98;94224.50;6271699;28;20045;-68
2023/12/28 10:15:25;;;;;;;8.63;5.40;;;;;;;-0.28;77.83;94183.28;6271547;28;20037;-69
2023/12/28 10:18:31;;;;;;;8.05;5.05;;;;;;;-0.31;77.28;94189.47;6271434;28;20490;-67
2023/12/28 10:21:34;;;;;;;9.00;5.32;;;;;;;-0.38;78.06;94239.06;6271701;28;20086;-69
2023/12/28 10:24:44;;;;;;;9.38;4.95;;;;;;;-0.37;78.07;94251.03;6252874;28;20053;-69
2023/12/28 10:27:52;;;;;;;9.15;5.38;;;;;;;-0.36;78.08;94237.22;6271338;28;20033;-69
2023/12/28 10:31:01;;;;;;;7.88;4.28;;;;;;;-0.43;77.76;94238.50;6271373;28;20044;-68
2023/12/28 10:34:06;;;;;;;9.30;4.90;;;;;;;-0.48;78.30;94237.06;6270914;28;20122;-69
2023/12/28 10:37:11;;;;;;;11.68;6.43;;;;;;;-0.50;78.20;94231.16;6271050;28;20037;-68
2023/12/28 10:40:17;;;;;;;12.25;6.57;;;;;;;-0.51;78.05;94214.03;6271312;28;20041;-69
2023/12/28 10:43:29;;;;;;;19.00;9.93;;;;;;;-0.49;78.14;94212.16;6270882;28;20468;-69
2023/12/28 10:46:51;;;;;;;12.48;6.72;;;;;;;-0.54;78.17;94221.97;6270603;28;20474;-67
2023/12/28 10:49:58;;;;;;;16.73;8.38;;;;;;;-0.58;78.29;94210.16;6252900;28;20134;-68
2023/12/28 10:53:31;;;;;;;13.18;6.05;;;;;;;-0.61;77.77;94202.59;6270375;28;20060;-68
2023/12/28 10:56:44;;;;;;;9.55;4.90;;;;;;;-0.62;78.47;94184.63;6270165;28;20128;-68
2023/12/28 11:00:00;;;;;;;14.07;5.15;;;;;;;-0.64;77.91;94189.06;6270605;28;20044;-68
2023/12/28 11:03:08;;;;;;;10.27;5.65;;;;;;;-0.69;78.43;94168.69;6270861;28;20135;-69
2023/12/28 11:06:16;;;;;;;7.22;4.80;;;;;;;-0.69;78.43;94168.69;6269945;28;20045;-68
2023/12/28 11:09:24;;;;;;;9.25;4.72;;;;;;;-0.75;78.72;94184.59;6270591;28;20506;-68
2023/12/28 11:12:28;;;;;;;7.95;4.28;;;;;;;-0.72;78.01;94159.38;6269278;28;20198;-67
2023/12/28 11:15:31;;;;;;;5.95;3.28;;;;;;;-0.73;78.24;94120.78;6269249;28;20070;-68
2023/12/28 11:18:33;;;;;;;5.38;3.38;;;;;;;-0.79;78.94;94115.97;6269606;28;20051;-67
2023/12/28 11:21:35;;;;;;;6.28;3.40;;;;;;;-0.81;78.96;94141.09;6269562;28;20049;-68
2023/12/28 11:24:37;;;;;;;5.95;3.35;;;;;;;-0.86;78.34;94131.06;6269473;28;20049;-68
2023/12/28 11:27:38;;;;;;;5.13;3.20;;;;;;;-0.85;79.01;94131.88;6268900;28;20064;-69
2023/12/28 11:30:43;;;;;;;4.65;3.33;;;;;;;-0.91;78.87;94139.09;6269110;28;20052;-70
2023/12/28 11:33:52;;;;;;;4.97;2.85;;;;;;;-0.92;79.42;94127.09;6269786;28;20149;-70
2023/12/28 11:36:58;;;;;;;5.60;3.30;;;;;;;-0.85;78.97;94134.44;6268781;28;20040;-69
2023/12/28 11:40:15;;;;;;;5.53;3.58;;;;;;;-0.81;79.16;94121.25;6269843;28;20048;-68
2023/12/28 11:43:23;;;;;;;3.15;2.22;;;;;;;-0.84;79.23;94112.91;6269454;28;20055;-68
2023/12/28 11:46:25;;;;;;;4.03;2.40;;;;;;;-0.83;79.08;94114.53;6268706;28;20056;-68
2023/12/28 11:49:29;;;;;;;2.75;2.38;;;;;;;-0.91;79.24;94096.94;6268269;28;20049;-69
2023/12/28 11:52:36;;;;;;;5.03;3.00;;;;;;;-0.94;78.92;94092.81;6274413;28;20078;-69
2023/12/28 11:55:37;;;;;;;;;;;;;;;-0.88;79.18;94096.75;6293455;28;20052;-70
2023/12/28 11:58:39;;;;;;;6.55;3.47;;;;;;;-0.89;79.34;94089.13;6292996;28;20081;-68
2023/12/28 12:01:41;;;;;;;4.60;3.00;;;;;;;-0.90;78.96;94075.41;6293239;28;20576;-68
2023/12/28 12:04:43;;;;;;;3.35;2.33;;;;;;;-0.91;79.55;94076.31;6275634;28;20658;-68
2023/12/28 12:07:51;;;;;;;3.30;2.35;;;;;;;-0.91;79.67;94072.00;6293870;28;20048;-68
2023/12/28 12:11:05;;;;;;;3.67;2.58;;;;;;;-0.88;79.53;94059.78;6292773;28;20422;-69
2023/12/28 12:14:10;;;;;;;2.70;2.30;;;;;;;-0.92;79.49;94044.50;6292826;28;20056;-68
2023/12/28 12:17:17;;;;;;;3.90;2.65;;;;;;;-0.89;79.69;94027.19;6293811;28;20044;-67
2023/12/28 12:20:19;;;;;;;3.50;2.22;;;;;;;-0.92;79.84;94029.03;6293815;28;20037;-68
2023/12/28 12:23:21;;;;;;;3.60;2.00;;;;;;;-0.92;80.04;94031.59;6293469;28;20032;-68
2023/12/28 12:26:22;;;;;;;3.33;2.40;;;;;;;-0.89;79.97;94032.34;6292788;28;20048;-68
2023/12/28 12:29:29;;;;;;;2.63;2.33;;;;;;;-0.89;80.29;94022.00;6292858;28;20056;-68
2023/12/28 12:32:39;;;;;;;4.38;3.00;;;;;;;-0.85;79.91;93997.63;6293491;28;20033;-69
2023/12/28 12:35:40;;;;;;;5.13;2.72;;;;;;;-0.82;80.73;93987.09;6292277;28;20138;-68
2023/12/28 12:38:47;;;;;;;6.00;2.90;;;;;;;-0.85;79.88;93977.84;6293177;28;20036;-69
2023/12/28 12:41:49;;;;;;;;;;;;;;;-0.81;80.45;93971.53;6293365;28;20056;-68
2023/12/28 12:44:54;;;;;;;3.22;2.20;;;;;;;-0.80;80.37;93942.19;6293524;28;20027;-68
2023/12/28 12:48:00;;;;;;;3.05;1.65;;;;;;;-0.85;79.65;93931.38;6276309;28;20048;-69
2023/12/28 12:51:03;;;;;;;3.95;1.75;;;;;;;-0.83;79.75;93913.19;6292604;28;20059;-68
2023/12/28 12:54:04;;;;;;;3.78;2.38;;;;;;;-0.81;79.62;93908.75;6274894;28;20057;-69
2023/12/28 12:57:06;;;;;;;3.15;2.40;;;;;;;-0.84;80.19;93927.03;6268469;28;20670;-68
2023/12/28 13:00:12;;;;;;;7.47;3.80;;;;;;;-0.87;79.84;93911.75;6268422;28;20041;-68
2023/12/28 13:03:17;;;;;;;3.58;2.45;;;;;;;-0.82;80.35;93925.16;6268062;28;20048;-68
2023/12/28 13:06:23;;;;;;;3.42;2.35;;;;;;;-0.82;80.29;93919.97;6268163;28;20041;-68
2023/12/28 13:09:24;;;;;;;3.75;2.25;;;;;;;-0.80;80.50;93920.72;6267359;28;20430;-67
2023/12/28 13:12:28;;;;;;;3.72;2.47;;;;;;;-0.80;80.26;93928.47;6250327;28;20055;-68
2023/12/28 13:15:35;;;;;;;3.47;2.40;;;;;;;-0.77;80.39;93912.75;6268030;28;20049;-69
2023/12/28 13:18:41;;;;;;;3.17;1.70;;;;;;;-0.75;79.87;93903.16;6250626;28;20053;-68
2023/12/28 13:21:49;;;;;;;5.22;2.70;;;;;;;-0.76;79.98;93909.28;6268119;28;20049;-69
2023/12/28 13:24:51;;;;;;;2.33;1.70;;;;;;;-0.68;79.38;93912.13;6268121;28;20514;-67
2023/12/28 13:27:55;;;;;;;;;;;;;;;-0.68;79.97;93927.63;6268519;28;20052;-67
2023/12/28 13:30:58;;;;;;;3.10;2.17;;;;;;;-1.01;80.29;93889.44;6267157;28;20412;-68
2023/12/28 13:34:00;;;;;;;;;;;;;;;-0.67;80.77;93944.78;6267309;28;20592;-68
2023/12/28 13:37:03;;;;;;;3.50;1.60;;;;;;;-0.72;80.37;93931.34;6268233;28;19920;-69
2023/12/28 13:40:06;;;;;;;6.75;3.33;;;;;;;-0.64;80.27;93916.16;6269605;28;20048;-69
2023/12/28 13:43:10;;;;;;;5.93;2.80;;;;;;;-0.60;79.93;93904.69;6255259;28;20049;-68
2023/12/28 13:46:17;;;;;;;2.97;1.80;;;;;;;-0.57;80.38;93899.31;6271984;28;20041;-68
2023/12/28 13:49:21;;;;;;;4.63;1.90;;;;;;;-0.55;80.71;93897.44;6272533;28;20041;-68
2023/12/28 13:52:26;;;;;;;2.80;1.50;;;;;;;-0.51;80.93;93893.75;6271542;28;20041;-67
2023/12/28 13:55:30;;;;;;;3.47;2.10;;;;;;;-0.48;80.95;93885.78;6271940;28;20049;-68
2023/12/28 13:58:33;;;;;;;3.67;1.88;;;;;;;-0.42;81.02;93896.63;6271790;28;20041;-68
2023/12/28 14:01:35;;;;;;;3.38;2.35;;;;;;;-0.39;80.68;93883.50;6271994;28;20044;-68
2023/12/28 14:04:38;;;;;;;2.83;2.35;;;;;;;-0.39;80.57;93868.00;6271781;28;20040;-68
2023/12/28 14:07:43;;;;;;;2.95;2.50;;;;;;;-0.40;81.23;93871.50;6272240;28;20041;-68
2023/12/28 14:10:54;;;;;;;3.50;2.63;;;;;;;-0.36;80.57;93884.09;6271678;28;20048;-68
2023/12/28 14:13:59;;;;;;;5.07;3.65;;;;;;;-0.40;80.92;93877.47;6271880;28;20041;-68
2023/12/28 14:17:00;;;;;;;8.68;4.78;;;;;;;-0.35;80.51;93872.00;6271484;28;20045;-68
2023/12/28 14:20:23;;;;;;;7.45;4.28;;;;;;;-0.65;81.05;93792.31;6255431;28;20079;-69
2023/12/28 14:23:28;;;;;;;12.88;7.03;;;;;;;-0.33;80.46;93831.38;6270901;28;20049;-69
2023/12/28 14:26:32;;;;;;;34.75;14.52;;;;;;;-0.33;80.74;93823.63;6271676;28;20231;-68
2023/12/28 14:29:40;;;;;;;48.35;19.33;;;;;;;-0.33;81.41;93833.97;6271679;28;20052;-68